»·PEaware :: N900FT KSNA-KSJC

N900FT :: KSNA-KSJC

FLIGHT INFORMATION

Flight Status: Arrived
Operator: Privately registered:
United States
More flights under this callsign
Pilot: Anonymous 26404 (26404)
Aircraft: SOCATA TBM-900
(TBM9)
More flights by this aircraft type
Origin: KSNA John Wayne-Orange Co
United States
Destination: KSJC Mineta San Jose Intl
United States
More flights between these airports :: More routes between these airports
Route: HHERO3 IKAYE TESEA SCTRR TROXX SILCN4
File this flight plan on PilotEdge
Remarks:
Altitude:
(Current/Filed)
28,000ft
Speed:
(Current/Filed)
320kts
Departed: 21-May-20 09:26 PM
Arrived: 21-May-20 10:44 PM
Distance/Time
Traveled:
297nm/1:17
Distance/Time
To Go:
Arrived

Flight Plot

Page will automatically refresh every two minutes.


Map Options




Map Legend


Flown Route
Filed Route
Departure Airport
Arrival Airport
Navaid (VOR, NDB)
Fix

Horizontal Profiles

Position Reports

Time Latitude Longitude Heading Altitude Ground
Speed
21-May-20 21:14 33.672813 -117.872780 22 59ft 0kts
21-May-20 21:15 33.672813 -117.872780 22 59ft 0kts
21-May-20 21:16 33.672813 -117.872780 22 59ft 0kts
21-May-20 21:17 33.672813 -117.872780 22 59ft 0kts
21-May-20 21:18 33.672813 -117.872780 22 59ft 0kts
21-May-20 21:19 33.672813 -117.872780 22 59ft 0kts
21-May-20 21:20 33.673668 -117.871966 31 59ft 12kts
21-May-20 21:21 33.677365 -117.869262 27 59ft 20kts
21-May-20 21:22 33.680113 -117.867704 27 59ft 21kts
21-May-20 21:23 33.681209 -117.866672 94 59ft 0kts
21-May-20 21:24 33.680349 -117.865863 210 59ft 16kts
21-May-20 21:25 33.655430 -117.881708 207 1210ft 130kts
21-May-20 21:26 33.621798 -117.891354 187 3582ft 128kts
21-May-20 21:27 33.584424 -117.897316 186 5872ft 136kts
21-May-20 21:28 33.551241 -117.922346 220 8030ft 163kts
21-May-20 21:29 33.507826 -117.971231 221 8021ft 242kts
21-May-20 21:30 33.464252 -118.035188 238 8765ft 227kts
21-May-20 21:31 33.435873 -118.093141 237 11108ft 197kts
21-May-20 21:32 33.410922 -118.148730 270 13258ft 177kts
21-May-20 21:33 33.421624 -118.208238 286 15468ft 183kts
21-May-20 21:34 33.433436 -118.269129 288 17576ft 189kts
21-May-20 21:35 33.451381 -118.327417 305 19868ft 183kts
21-May-20 21:36 33.475072 -118.381607 305 21953ft 180kts
21-May-20 21:37 33.498473 -118.435241 305 24252ft 178kts
21-May-20 21:38 33.521414 -118.487287 310 26400ft 172kts
21-May-20 21:39 33.550800 -118.533447 309 28015ft 183kts
21-May-20 21:40 33.587177 -118.590278 309 28013ft 237kts
21-May-20 21:41 33.629274 -118.656038 308 27995ft 258kts
21-May-20 21:42 33.678811 -118.720594 330 27974ft 268kts
21-May-20 21:43 33.747046 -118.763135 330 27953ft 276kts
21-May-20 21:44 33.815931 -118.805943 330 27944ft 278kts
21-May-20 21:45 33.885972 -118.849526 329 27946ft 279kts
21-May-20 21:46 33.956198 -118.893323 329 27951ft 280kts
21-May-20 21:47 34.026977 -118.937547 328 27957ft 280kts
21-May-20 21:48 34.098311 -118.982204 328 27959ft 282kts
21-May-20 21:49 34.163252 -119.030891 308 27960ft 277kts
21-May-20 21:50 34.218444 -119.099997 312 27956ft 280kts
21-May-20 21:51 34.274752 -119.167248 312 27954ft 280kts
21-May-20 21:52 34.331315 -119.234859 312 27953ft 280kts
21-May-20 21:53 34.387969 -119.302733 312 27951ft 280kts
21-May-20 21:54 34.444555 -119.370668 312 27945ft 280kts
21-May-20 21:55 34.500380 -119.437821 312 27939ft 280kts
21-May-20 21:56 34.556146 -119.505035 312 27933ft 280kts
21-May-20 21:58 34.611656 -119.572078 312 27930ft 279kts
21-May-20 21:59 34.668293 -119.640619 312 27929ft 279kts
21-May-20 22:00 34.724347 -119.708592 312 27937ft 280kts
21-May-20 22:01 34.780318 -119.776600 312 27965ft 280kts
21-May-20 22:02 34.836514 -119.845024 312 27999ft 279kts
21-May-20 22:03 34.891991 -119.912703 312 28017ft 279kts
21-May-20 22:04 34.947033 -119.979981 311 28016ft 279kts
21-May-20 22:05 35.002223 -120.047589 310 28017ft 277kts
21-May-20 22:06 35.057308 -120.115210 310 28018ft 275kts
21-May-20 22:07 35.109874 -120.179873 310 28025ft 274kts
21-May-20 22:08 35.163953 -120.246531 310 28025ft 275kts
21-May-20 22:09 35.225439 -120.305199 318 28022ft 278kts
21-May-20 22:10 35.288534 -120.362959 318 28017ft 278kts
21-May-20 22:11 35.351970 -120.421115 317 28015ft 278kts
21-May-20 22:12 35.415280 -120.479302 317 28006ft 278kts
21-May-20 22:13 35.477236 -120.536335 318 27994ft 278kts
21-May-20 22:14 35.541831 -120.593796 322 27986ft 280kts
21-May-20 22:15 35.609278 -120.646597 321 27982ft 280kts
21-May-20 22:15 35.665293 -120.690574 321 27992ft 280kts
21-May-20 22:17 35.744027 -120.752487 321 27992ft 281kts
21-May-20 22:17 35.800139 -120.796701 321 27990ft 281kts
21-May-20 22:18 35.867373 -120.849772 321 27990ft 280kts
21-May-20 22:19 35.934987 -120.903274 321 27906ft 283kts
21-May-20 22:20 36.006989 -120.960512 321 26009ft 307kts
21-May-20 22:21 36.072432 -121.022264 317 25990ft 279kts
21-May-20 22:22 36.131981 -121.078916 316 26012ft 272kts
21-May-20 22:23 36.196995 -121.140954 317 24345ft 303kts
21-May-20 22:24 36.265834 -121.206698 317 22385ft 312kts
21-May-20 22:25 36.336152 -121.274049 318 20411ft 314kts
21-May-20 22:26 36.405746 -121.341004 318 18242ft 315kts
21-May-20 22:27 36.474586 -121.407418 319 15646ft 303kts
21-May-20 22:28 36.547165 -121.451210 337 15047ft 269kts
21-May-20 22:29 36.620108 -121.481970 338 14693ft 285kts
21-May-20 22:30 36.700170 -121.515855 339 12141ft 297kts
21-May-20 22:31 36.776598 -121.548207 339 10992ft 258kts
21-May-20 22:32 36.845800 -121.577638 339 9867ft 267kts
21-May-20 22:33 36.918664 -121.608694 340 8136ft 270kts
21-May-20 22:34 36.990880 -121.639305 340 6442ft 278kts
21-May-20 22:35 37.066474 -121.671438 340 4222ft 276kts
21-May-20 22:36 37.132414 -121.700109 340 4195ft 240kts
21-May-20 22:37 37.189361 -121.739183 316 4195ft 214kts
21-May-20 22:38 37.234584 -121.789420 319 3205ft 215kts
21-May-20 22:39 37.278623 -121.837729 319 2080ft 190kts
21-May-20 22:40 37.311391 -121.873654 320 1235ft 116kts
21-May-20 22:41 37.330638 -121.894742 322 753ft 79kts
21-May-20 22:42 37.348030 -121.913756 322 299ft 81kts
21-May-20 22:43 37.362153 -121.929297 318 48ft 16kts
21-May-20 22:44 37.362029 -121.930964 228 48ft 4kts
21-May-20 22:45 37.360909 -121.933713 228 49ft 10kts
21-May-20 22:46 37.360900 -121.934424 313 49ft 0kts
21-May-20 22:47 37.360900 -121.934424 313 49ft 0kts
21-May-20 22:48 37.360900 -121.934424 313 49ft 0kts
21-May-20 22:49 37.360900 -121.934424 313 49ft 0kts
21-May-20 22:50 37.360900 -121.934424 313 49ft 0kts
21-May-20 22:51 37.360900 -121.934424 313 49ft 0kts

Navigation Log

Ident Type
Flight plan parsing failed, navigation log unavailable